Time;durP1;ratioP1;P1;durP2;ratioP2;P2;SDS_P1;SDS_P2;PMS_P1;PMS_P2;Temp;Humidity;BMP_temperature;BMP_pressure;BME280_temperature;BME280_humidity;BME280_pressure;Samples;Min_cycle;Max_cycle;Signal;HPM_P1;HPM_P2
2023/03/13 00:01:35;;;;;;;;;;;20.10;45.00;;;;;;1534983;77;1240;-60
2023/03/13 00:03:37;;;;;;;;;;;20.10;45.00;;;;;;1526834;77;1937;-61
2023/03/13 00:05:39;;;;;;;;;;;20.10;45.10;;;;;;1534784;77;1504;-60
2023/03/13 00:07:41;;;;;;;;;;;20.20;45.10;;;;;;1528516;77;745;-60
2023/03/13 00:09:43;;;;;;;;;;;20.20;45.10;;;;;;1534884;77;784;-61
2023/03/13 00:11:46;;;;;;;;;;;20.10;45.10;;;;;;1545561;77;1308;-61
2023/03/13 00:13:47;;;;;;;;;;;20.10;45.10;;;;;;1527056;77;723;-61
2023/03/13 00:15:49;;;;;;;;;;;20.10;45.10;;;;;;1541922;77;787;-60
2023/03/13 00:17:51;;;;;;;;;;;20.10;45.20;;;;;;1541037;77;734;-64
2023/03/13 00:19:54;;;;;;;;;;;20.10;45.10;;;;;;1532174;77;1271;-61
2023/03/13 00:21:56;;;;;;;;;;;20.10;45.20;;;;;;1535464;77;1153;-60
2023/03/13 00:23:58;;;;;;;;;;;20.10;45.20;;;;;;1535650;77;1947;-61
2023/03/13 00:26:01;;;;;;;;;;;20.10;45.20;;;;;;1539415;77;797;-60
2023/03/13 00:28:03;;;;;;;;;;;20.10;45.20;;;;;;1544958;77;719;-62
2023/03/13 00:30:05;;;;;;;;;;;20.10;45.20;;;;;;1542035;77;754;-60
2023/03/13 00:32:07;;;;;;;;;;;20.10;45.20;;;;;;1547630;77;1154;-60
2023/03/13 00:34:09;;;;;;;;;;;20.10;45.20;;;;;;1546008;77;1539;-61
2023/03/13 00:36:12;;;;;;;;;;;20.10;45.20;;;;;;1532165;77;790;-61
2023/03/13 00:38:14;;;;;;;;;;;20.10;45.20;;;;;;1541760;77;748;-62
2023/03/13 00:40:16;;;;;;;;;;;20.10;45.30;;;;;;1529968;77;721;-60
2023/03/13 00:42:17;;;;;;;;;;;20.10;45.20;;;;;;1542713;77;1146;-60
2023/03/13 00:44:19;;;;;;;;;;;20.10;45.30;;;;;;1541641;77;1937;-60
2023/03/13 00:46:22;;;;;;;;;;;20.10;45.30;;;;;;1543706;77;610;-61
2023/03/13 00:48:24;;;;;;;;;;;20.00;45.20;;;;;;1541233;77;1529;-61
2023/03/13 00:50:26;;;;;;;;;;;20.10;45.30;;;;;;1545315;77;734;-63
2023/03/13 00:52:28;;;;;;;;;;;20.10;45.30;;;;;;1546480;77;1145;-61
2023/03/13 00:54:29;;;;;;;;;;;20.00;45.20;;;;;;1543725;77;641;-60
2023/03/13 00:56:31;;;;;;;;;;;20.00;45.20;;;;;;1534162;77;598;-60
2023/03/13 00:58:34;;;;;;;;;;;20.00;45.20;;;;;;1535901;77;705;-60
2023/03/13 01:00:36;;;;;;;;;;;20.00;45.20;;;;;;1545334;77;667;-60
2023/03/13 01:02:39;;;;;;;;;;;20.00;45.20;;;;;;1540794;77;1555;-60
2023/03/13 01:04:41;;;;;;;;;;;20.00;45.20;;;;;;1543386;77;1939;-58
2023/03/13 01:06:43;;;;;;;;;;;20.10;45.40;;;;;;1543975;77;744;-59
2023/03/13 01:08:45;;;;;;;;;;;20.00;45.20;;;;;;1547610;77;948;-58
2023/03/13 01:10:47;;;;;;;;;;;20.00;45.30;;;;;;1537907;77;744;-58
2023/03/13 01:12:49;;;;;;;;;;;20.00;45.40;;;;;;1530626;77;1113;-58
2023/03/13 01:14:51;;;;;;;;;;;20.00;45.30;;;;;;1534996;77;667;-59
2023/03/13 01:16:52;;;;;;;;;;;20.00;45.30;;;;;;1537127;77;1521;-57
2023/03/13 01:18:55;;;;;;;;;;;20.00;45.30;;;;;;1542196;77;752;-61
2023/03/13 01:20:57;;;;;;;;;;;20.00;45.30;;;;;;1533645;77;774;-58
2023/03/13 01:22:59;;;;;;;;;;;20.10;45.50;;;;;;1540197;77;1164;-57
2023/03/13 01:25:01;;;;;;;;;;;20.00;45.30;;;;;;1526363;77;1942;-58
2023/03/13 01:27:03;;;;;;;;;;;20.10;45.40;;;;;;1546226;77;739;-58
2023/03/13 01:29:04;;;;;;;;;;;20.00;45.30;;;;;;1544196;77;752;-58
2023/03/13 01:31:17;;;;;;;;;;;20.00;45.20;;;;;;1542156;77;1279;-59
2023/03/13 01:33:19;;;;;;;;;;;20.00;45.20;;;;;;1533685;77;650;-58
2023/03/13 01:35:21;;;;;;;;;;;20.00;45.30;;;;;;1544430;77;710;-57
2023/03/13 01:37:23;;;;;;;;;;;20.00;45.30;;;;;;1524064;77;783;-59
2023/03/13 01:39:24;;;;;;;;;;;20.00;45.30;;;;;;1530057;77;679;-58
2023/03/13 01:41:27;;;;;;;;;;;20.00;45.30;;;;;;1528652;77;1147;-58
2023/03/13 01:43:29;;;;;;;;;;;20.00;45.30;;;;;;1533631;77;733;-59
2023/03/13 01:45:49;;;;;;;;;;;20.00;45.30;;;;;;1530249;77;1949;-57
2023/03/13 01:47:51;;;;;;;;;;;20.00;45.30;;;;;;1540760;77;731;-57
2023/03/13 01:49:53;;;;;;;;;;;20.00;45.30;;;;;;1544323;75;674;-58
2023/03/13 01:51:57;;;;;;;;;;;20.00;45.30;;;;;;1543281;77;1142;-58
2023/03/13 01:54:00;;;;;;;;;;;20.00;45.30;;;;;;1522480;77;992;-61
2023/03/13 01:56:03;;;;;;;;;;;20.00;45.30;;;;;;1534900;77;904;-58
2023/03/13 01:58:05;;;;;;;;;;;20.10;45.50;;;;;;1540055;77;1546;-61
2023/03/13 02:00:11;;;;;;;;;;;20.00;45.30;;;;;;1536899;77;726;-58
2023/03/13 02:02:13;;;;;;;;;;;20.00;45.30;;;;;;1535808;77;1120;-59
2023/03/13 02:04:15;;;;;;;;;;;20.00;45.30;;;;;;1531118;77;1924;-58
2023/03/13 02:06:17;;;;;;;;;;;20.00;45.30;;;;;;1541037;77;659;-60
2023/03/13 02:08:20;;;;;;;;;;;20.00;45.30;;;;;;1535401;77;734;-58
2023/03/13 02:10:22;;;;;;;;;;;20.00;45.30;;;;;;1523090;77;632;-61
2023/03/13 02:12:26;;;;;;;;;;;20.00;45.30;;;;;;1535032;77;1609;-58
2023/03/13 02:14:28;;;;;;;;;;;20.00;45.30;;;;;;1539970;77;1821;-59
2023/03/13 02:16:31;;;;;;;;;;;20.00;45.30;;;;;;1539015;77;749;-60
2023/03/13 02:18:33;;;;;;;;;;;20.00;45.30;;;;;;1537523;77;800;-58
2023/03/13 02:20:35;;;;;;;;;;;20.00;45.40;;;;;;1546450;77;777;-58
2023/03/13 02:22:44;;;;;;;;;;;20.00;45.30;;;;;;1538476;77;1163;-58
2023/03/13 02:24:48;;;;;;;;;;;20.00;45.40;;;;;;1539861;77;1944;-58
2023/03/13 02:26:50;;;;;;;;;;;20.00;45.40;;;;;;1533168;77;1586;-58
2023/03/13 02:28:52;;;;;;;;;;;19.90;45.40;;;;;;1536022;77;591;-58
2023/03/13 02:30:54;;;;;;;;;;;20.00;45.30;;;;;;1546907;77;631;-58
2023/03/13 02:32:56;;;;;;;;;;;20.00;45.40;;;;;;1545482;77;1099;-59
2023/03/13 02:35:00;;;;;;;;;;;20.00;45.30;;;;;;1540464;77;789;-57
2023/03/13 02:37:02;;;;;;;;;;;20.00;45.30;;;;;;1547455;77;610;-59
2023/03/13 02:39:04;;;;;;;;;;;20.00;45.30;;;;;;1547670;77;767;-57
2023/03/13 02:41:06;;;;;;;;;;;20.00;45.30;;;;;;1544166;77;1261;-58
2023/03/13 02:43:09;;;;;;;;;;;20.00;45.40;;;;;;1542997;77;1106;-60
2023/03/13 02:45:13;;;;;;;;;;;19.90;45.40;;;;;;1536553;77;1939;-57
2023/03/13 02:47:18;;;;;;;;;;;20.00;45.30;;;;;;1545355;77;769;-57
2023/03/13 02:49:29;;;;;;;;;;;20.00;45.20;;;;;;1539808;77;780;-59
2023/03/13 02:51:32;;;;;;;;;;;20.00;45.30;;;;;;1546531;77;1145;-58
2023/03/13 02:53:34;;;;;;;;;;;20.00;45.30;;;;;;1535910;77;786;-58
2023/03/13 02:55:39;;;;;;;;;;;20.00;45.30;;;;;;1544491;77;1548;-58
2023/03/13 02:57:41;;;;;;;;;;;20.00;45.30;;;;;;1545917;77;701;-58
2023/03/13 02:59:43;;;;;;;;;;;20.00;45.30;;;;;;1544509;77;776;-58
2023/03/13 03:01:45;;;;;;;;;;;20.00;45.30;;;;;;1533335;77;1166;-60
2023/03/13 03:03:47;;;;;;;;;;;20.00;45.30;;;;;;1542079;77;707;-58
2023/03/13 03:05:49;;;;;;;;;;;20.00;45.30;;;;;;1536126;77;1924;-58
2023/03/13 03:07:51;;;;;;;;;;;20.00;45.30;;;;;;1538990;77;791;-59
2023/03/13 03:09:53;;;;;;;;;;;20.00;45.30;;;;;;1531434;77;1502;-58
2023/03/13 03:11:55;;;;;;;;;;;20.00;45.30;;;;;;1536808;77;1129;-58
2023/03/13 03:13:57;;;;;;;;;;;19.90;45.40;;;;;;1543020;77;922;-57
2023/03/13 03:15:59;;;;;;;;;;;20.00;45.40;;;;;;1545170;77;735;-58
2023/03/13 03:18:00;;;;;;;;;;;20.00;45.40;;;;;;1536078;77;684;-59
2023/03/13 03:20:06;;;;;;;;;;;20.00;45.40;;;;;;1531431;77;679;-58
2023/03/13 03:22:06;;;;;;;;;;;20.00;45.40;;;;;;1535660;77;1522;-57
2023/03/13 03:24:08;;;;;;;;;;;19.90;45.40;;;;;;1541500;77;724;-58
2023/03/13 03:26:10;;;;;;;;;;;20.00;45.40;;;;;;1538862;77;1954;-59
2023/03/13 03:28:12;;;;;;;;;;;19.90;45.40;;;;;;1547697;77;717;-58
2023/03/13 03:30:14;;;;;;;;;;;20.00;45.40;;;;;;1541236;77;700;-58
2023/03/13 03:32:16;;;;;;;;;;;19.90;45.30;;;;;;1540344;77;1142;-58
2023/03/13 03:34:17;;;;;;;;;;;19.90;45.40;;;;;;1542633;77;779;-57
2023/03/13 03:36:20;;;;;;;;;;;19.90;45.40;;;;;;1539958;77;1556;-58
2023/03/13 03:38:22;;;;;;;;;;;19.90;45.40;;;;;;1540750;77;799;-57
2023/03/13 03:40:24;;;;;;;;;;;19.90;45.40;;;;;;1534335;77;730;-60
2023/03/13 03:42:26;;;;;;;;;;;20.00;45.40;;;;;;1543986;77;1140;-58
2023/03/13 03:44:28;;;;;;;;;;;20.00;45.40;;;;;;1533506;77;708;-58
2023/03/13 03:46:30;;;;;;;;;;;19.90;45.40;;;;;;1539427;77;734;-57
2023/03/13 03:48:32;;;;;;;;;;;19.90;45.40;;;;;;1535956;77;783;-58
2023/03/13 03:50:34;;;;;;;;;;;19.90;45.40;;;;;;1534906;77;1529;-58
2023/03/13 03:52:36;;;;;;;;;;;20.00;45.40;;;;;;1536699;77;1114;-59
2023/03/13 03:54:37;;;;;;;;;;;19.90;45.40;;;;;;1531877;77;770;-57
2023/03/13 03:56:39;;;;;;;;;;;19.90;45.40;;;;;;1543406;77;659;-57
2023/03/13 03:58:41;;;;;;;;;;;20.00;45.40;;;;;;1532350;77;713;-58
2023/03/13 04:00:44;;;;;;;;;;;19.90;45.40;;;;;;1544533;77;673;-59
2023/03/13 04:02:46;;;;;;;;;;;19.90;45.50;;;;;;1542546;77;1214;-59
2023/03/13 04:04:47;;;;;;;;;;;20.00;45.40;;;;;;1547718;75;1933;-58
2023/03/13 04:06:49;;;;;;;;;;;20.00;45.40;;;;;;1547002;75;703;-58
2023/03/13 04:08:51;;;;;;;;;;;19.90;45.40;;;;;;1529287;77;770;-60
2023/03/13 04:10:53;;;;;;;;;;;19.90;45.50;;;;;;1534425;77;729;-58
2023/03/13 04:12:55;;;;;;;;;;;19.90;45.50;;;;;;1536699;77;1258;-61
2023/03/13 04:14:57;;;;;;;;;;;19.90;45.50;;;;;;1546168;77;723;-59
2023/03/13 04:16:59;;;;;;;;;;;19.90;45.40;;;;;;1547144;77;706;-57
2023/03/13 04:19:01;;;;;;;;;;;19.90;45.50;;;;;;1539236;77;1326;-57
2023/03/13 04:21:03;;;;;;;;;;;19.90;45.40;;;;;;1545067;77;746;-58
2023/03/13 04:23:04;;;;;;;;;;;20.00;45.40;;;;;;1532593;77;1103;-57
2023/03/13 04:25:06;;;;;;;;;;;19.90;45.40;;;;;;1545974;77;1937;-58
2023/03/13 04:27:08;;;;;;;;;;;19.90;45.40;;;;;;1536046;77;787;-58
2023/03/13 04:29:10;;;;;;;;;;;19.90;45.50;;;;;;1531525;77;601;-58
2023/03/13 04:31:12;;;;;;;;;;;19.90;45.40;;;;;;1534480;77;686;-58
2023/03/13 04:33:14;;;;;;;;;;;19.90;45.40;;;;;;1527459;77;1341;-60
2023/03/13 04:35:16;;;;;;;;;;;19.90;45.40;;;;;;1542435;77;648;-58
2023/03/13 04:37:18;;;;;;;;;;;19.90;45.40;;;;;;1533172;77;646;-58
2023/03/13 04:39:24;;;;;;;;;;;19.90;45.40;;;;;;1534686;77;652;-58
2023/03/13 04:41:23;;;;;;;;;;;19.90;45.50;;;;;;1533173;77;1948;-58
2023/03/13 04:43:25;;;;;;;;;;;19.90;45.40;;;;;;1534533;77;708;-58
2023/03/13 04:45:27;;;;;;;;;;;19.90;45.40;;;;;;1541738;77;1927;-61
2023/03/13 04:47:29;;;;;;;;;;;19.90;45.50;;;;;;1532835;77;1598;-59
2023/03/13 04:49:31;;;;;;;;;;;19.90;45.50;;;;;;1532584;77;693;-59
2023/03/13 04:51:33;;;;;;;;;;;20.00;45.50;;;;;;1541747;77;1188;-59
2023/03/13 04:53:35;;;;;;;;;;;19.90;45.50;;;;;;1538851;77;724;-58
2023/03/13 04:55:36;;;;;;;;;;;19.90;45.40;;;;;;1546644;77;862;-57
2023/03/13 04:57:38;;;;;;;;;;;19.90;45.40;;;;;;1534429;77;721;-58
2023/03/13 04:59:40;;;;;;;;;;;19.90;45.40;;;;;;1541181;77;731;-58
2023/03/13 05:01:42;;;;;;;;;;;19.90;45.50;;;;;;1539048;77;1297;-58
2023/03/13 05:03:44;;;;;;;;;;;19.90;45.50;;;;;;1530284;77;709;-59
2023/03/13 05:05:46;;;;;;;;;;;19.90;45.50;;;;;;1523473;77;1934;-58
2023/03/13 05:07:48;;;;;;;;;;;19.90;45.50;;;;;;1545410;77;760;-58
2023/03/13 05:09:50;;;;;;;;;;;19.90;45.50;;;;;;1541785;77;754;-58
2023/03/13 05:11:51;;;;;;;;;;;19.90;45.50;;;;;;1525971;77;1120;-58
2023/03/13 05:13:53;;;;;;;;;;;19.90;45.50;;;;;;1524545;77;781;-57
2023/03/13 05:15:55;;;;;;;;;;;19.90;45.50;;;;;;1527825;77;1285;-58
2023/03/13 05:17:57;;;;;;;;;;;19.90;45.50;;;;;;1542994;77;754;-59
2023/03/13 05:19:59;;;;;;;;;;;19.50;45.30;;;;;;1545939;77;706;-58
2023/03/13 05:22:01;;;;;;;;;;;19.90;45.50;;;;;;1530329;77;1151;-57
2023/03/13 05:24:03;;;;;;;;;;;19.90;45.60;;;;;;1544531;77;768;-58
2023/03/13 05:26:05;;;;;;;;;;;19.90;45.60;;;;;;1539394;77;1948;-60
2023/03/13 05:28:06;;;;;;;;;;;19.80;45.70;;;;;;1543373;77;791;-59
2023/03/13 05:30:09;;;;;;;;;;;19.80;45.70;;;;;;1531638;77;1545;-58
2023/03/13 05:32:11;;;;;;;;;;;19.90;45.80;;;;;;1528290;77;1142;-59
2023/03/13 05:34:13;;;;;;;;;;;19.90;45.80;;;;;;1535131;77;766;-61
2023/03/13 05:36:14;;;;;;;;;;;19.90;45.80;;;;;;1524390;77;599;-59
2023/03/13 05:38:17;;;;;;;;;;;19.80;45.70;;;;;;1542767;77;720;-57
2023/03/13 05:40:19;;;;;;;;;;;19.80;45.70;;;;;;1545946;77;757;-58
2023/03/13 05:42:20;;;;;;;;;;;19.80;45.70;;;;;;1541538;77;1134;-57
2023/03/13 05:44:22;;;;;;;;;;;19.90;45.80;;;;;;1540744;77;1654;-57
2023/03/13 05:46:24;;;;;;;;;;;19.80;45.70;;;;;;1537152;77;1939;-58
2023/03/13 05:48:26;;;;;;;;;;;19.90;45.70;;;;;;1538454;77;733;-59
2023/03/13 05:50:28;;;;;;;;;;;19.90;45.70;;;;;;1546527;77;690;-60
2023/03/13 05:52:30;;;;;;;;;;;19.90;45.70;;;;;;1546445;77;1127;-60
2023/03/13 05:54:32;;;;;;;;;;;19.90;45.70;;;;;;1541664;77;706;-58
2023/03/13 05:56:34;;;;;;;;;;;19.90;45.60;;;;;;1546452;77;698;-61
2023/03/13 05:58:36;;;;;;;;;;;19.90;45.70;;;;;;1538990;77;1627;-58
2023/03/13 06:00:38;;;;;;;;;;;19.90;45.60;;;;;;1534907;77;757;-58
2023/03/13 06:02:40;;;;;;;;;;;19.90;45.60;;;;;;1540415;77;1162;-58
2023/03/13 06:04:42;;;;;;;;;;;20.00;45.50;;;;;;1542310;77;727;-58
2023/03/13 06:06:44;;;;;;;;;;;19.90;45.60;;;;;;1546717;77;1947;-59
2023/03/13 06:08:45;;;;;;;;;;;19.90;45.50;;;;;;1502691;78;1259;-59
2023/03/13 06:10:47;;;;;;;;;;;19.90;45.50;;;;;;1544919;77;739;-58
2023/03/13 06:12:52;;;;;;;;;;;19.90;45.50;;;;;;1525287;77;1165;-59
2023/03/13 06:14:54;;;;;;;;;;;19.90;45.50;;;;;;1540230;77;779;-57
2023/03/13 06:16:56;;;;;;;;;;;19.90;45.50;;;;;;1538058;77;754;-60
2023/03/13 06:18:58;;;;;;;;;;;19.90;45.50;;;;;;1536731;77;714;-60
2023/03/13 06:21:00;;;;;;;;;;;19.90;45.60;;;;;;1536979;77;706;-58
2023/03/13 06:23:02;;;;;;;;;;;19.90;45.60;;;;;;1544684;77;1117;-58
2023/03/13 06:25:04;;;;;;;;;;;19.90;45.60;;;;;;1539544;77;1503;-57
2023/03/13 06:27:06;;;;;;;;;;;19.90;45.60;;;;;;1543150;77;1935;-59
2023/03/13 06:29:08;;;;;;;;;;;19.90;45.60;;;;;;1537914;77;752;-57
2023/03/13 06:31:10;;;;;;;;;;;19.80;45.50;;;;;;1537218;77;612;-57
2023/03/13 06:33:12;;;;;;;;;;;19.90;45.60;;;;;;1537682;77;1320;-60
2023/03/13 06:35:14;;;;;;;;;;;19.90;45.60;;;;;;1545570;77;727;-58
2023/03/13 06:37:16;;;;;;;;;;;19.90;45.60;;;;;;1534287;77;720;-59
2023/03/13 06:39:18;;;;;;;;;;;19.90;45.60;;;;;;1544733;77;1514;-59
2023/03/13 06:41:20;;;;;;;;;;;19.90;45.60;;;;;;1537640;77;1135;-58
2023/03/13 06:43:22;;;;;;;;;;;19.90;45.50;;;;;;1531603;77;765;-58
2023/03/13 06:45:23;;;;;;;;;;;19.90;45.60;;;;;;1536176;77;729;-58
2023/03/13 06:47:25;;;;;;;;;;;19.80;45.50;;;;;;1530558;77;1946;-57
2023/03/13 06:49:27;;;;;;;;;;;19.80;45.60;;;;;;1541720;77;719;-58
2023/03/13 06:51:29;;;;;;;;;;;19.90;45.60;;;;;;1538761;77;1226;-58
2023/03/13 06:53:31;;;;;;;;;;;19.90;45.60;;;;;;1539211;77;1529;-58
2023/03/13 06:55:33;;;;;;;;;;;19.80;45.50;;;;;;1543207;77;716;-57
2023/03/13 06:57:35;;;;;;;;;;;19.80;45.60;;;;;;1539281;77;801;-58
2023/03/13 06:59:38;;;;;;;;;;;19.90;45.60;;;;;;1545212;77;616;-57
2023/03/13 07:01:39;;;;;;;;;;;19.90;45.70;;;;;;1541762;77;1161;-58
2023/03/13 07:03:41;;;;;;;;;;;19.80;45.50;;;;;;1546400;77;895;-58
2023/03/13 07:05:43;;;;;;;;;;;19.90;45.60;;;;;;1539710;77;1945;-58
2023/03/13 07:07:45;;;;;;;;;;;19.90;45.60;;;;;;1538481;77;1552;-58
2023/03/13 07:09:47;;;;;;;;;;;19.90;45.60;;;;;;1532411;77;723;-58
2023/03/13 07:11:49;;;;;;;;;;;19.90;45.60;;;;;;1545220;77;1162;-59
2023/03/13 07:13:52;;;;;;;;;;;19.90;45.60;;;;;;1544703;77;681;-59
2023/03/13 07:15:54;;;;;;;;;;;19.90;45.60;;;;;;1544561;77;719;-57
2023/03/13 07:17:57;;;;;;;;;;;19.90;45.60;;;;;;1529687;77;796;-58
2023/03/13 07:19:59;;;;;;;;;;;19.90;45.50;;;;;;1527131;77;773;-57
2023/03/13 07:22:01;;;;;;;;;;;19.90;45.60;;;;;;1537966;77;1278;-57
2023/03/13 07:24:03;;;;;;;;;;;19.90;45.40;;;;;;1539399;77;746;-57
2023/03/13 07:26:05;;;;;;;;;;;19.80;45.20;;;;;;1534109;77;1926;-58
2023/03/13 07:28:07;;;;;;;;;;;19.70;44.70;;;;;;1549214;77;749;-58
2023/03/13 07:30:09;;;;;;;;;;;19.60;44.40;;;;;;1547567;77;791;-58
2023/03/13 07:32:11;;;;;;;;;;;19.50;44.40;;;;;;1548304;77;1130;-58
2023/03/13 07:34:13;;;;;;;;;;;19.50;43.60;;;;;;1533497;77;787;-59
2023/03/13 07:36:15;;;;;;;;;;;19.50;43.50;;;;;;1540239;77;1600;-58
2023/03/13 07:38:17;;;;;;;;;;;19.50;43.60;;;;;;1540815;77;843;-58
2023/03/13 07:40:19;;;;;;;;;;;19.60;42.80;;;;;;1547192;77;768;-59
2023/03/13 07:42:21;;;;;;;;;;;19.50;43.00;;;;;;1541176;77;1113;-59
2023/03/13 07:44:23;;;;;;;;;;;19.40;43.00;;;;;;1546391;77;725;-59
2023/03/13 07:46:25;;;;;;;;;;;19.40;42.50;;;;;;1534385;77;1932;-58
2023/03/13 07:48:30;;;;;;;;;;;19.30;42.50;;;;;;1537092;77;704;-58
2023/03/13 07:50:32;;;;;;;;;;;19.30;42.80;;;;;;1541639;77;1286;-59
2023/03/13 07:52:34;;;;;;;;;;;19.30;43.10;;;;;;1533895;77;1173;-59
2023/03/13 07:54:36;;;;;;;;;;;19.30;43.10;;;;;;1536696;77;680;-59
2023/03/13 07:56:38;;;;;;;;;;;19.50;43.10;;;;;;1540869;77;788;-58
2023/03/13 07:58:40;;;;;;;;;;;19.60;42.60;;;;;;1546453;77;646;-57
2023/03/13 08:00:42;;;;;;;;;;;19.60;42.40;;;;;;1543414;77;685;-58
2023/03/13 08:02:44;;;;;;;;;;;19.70;42.30;;;;;;1543973;77;1240;-58
2023/03/13 08:04:46;;;;;;;;;;;19.70;42.20;;;;;;1546853;77;1292;-59
2023/03/13 08:06:48;;;;;;;;;;;19.80;42.10;;;;;;1545330;77;1943;-58
2023/03/13 08:08:50;;;;;;;;;;;19.80;42.00;;;;;;1546520;77;818;-58
2023/03/13 08:10:52;;;;;;;;;;;19.80;42.00;;;;;;1543918;77;809;-61
2023/03/13 08:12:54;;;;;;;;;;;19.80;42.00;;;;;;1542455;77;1110;-58
2023/03/13 08:14:56;;;;;;;;;;;19.80;41.90;;;;;;1541279;77;716;-57
2023/03/13 08:16:58;;;;;;;;;;;19.80;41.90;;;;;;1541937;77;760;-57
2023/03/13 08:19:00;;;;;;;;;;;19.70;41.80;;;;;;1532656;77;1539;-58
2023/03/13 08:21:03;;;;;;;;;;;19.70;41.80;;;;;;1538839;77;768;-59
2023/03/13 08:23:05;;;;;;;;;;;19.70;41.70;;;;;;1543240;77;1134;-57
2023/03/13 08:25:07;;;;;;;;;;;19.80;41.80;;;;;;1545631;77;793;-58
2023/03/13 08:27:09;;;;;;;;;;;19.70;41.80;;;;;;1543344;77;1921;-58
2023/03/13 08:29:11;;;;;;;;;;;19.80;41.80;;;;;;1528678;77;715;-58
2023/03/13 08:31:17;;;;;;;;;;;19.70;41.80;;;;;;1547307;77;748;-58
2023/03/13 08:33:19;;;;;;;;;;;19.80;41.70;;;;;;1538626;77;1648;-58
2023/03/13 08:35:21;;;;;;;;;;;19.70;41.90;;;;;;1530707;77;706;-59
2023/03/13 08:37:23;;;;;;;;;;;19.70;41.90;;;;;;1545709;77;875;-58
2023/03/13 08:39:24;;;;;;;;;;;19.70;41.90;;;;;;1548772;77;751;-59
2023/03/13 08:41:27;;;;;;;;;;;19.60;41.80;;;;;;1537331;77;1090;-58
2023/03/13 08:43:29;;;;;;;;;;;19.70;41.90;;;;;;1543065;77;703;-57
2023/03/13 08:45:31;;;;;;;;;;;19.70;41.90;;;;;;1546339;77;674;-59
2023/03/13 08:47:33;;;;;;;;;;;19.70;41.90;;;;;;1533218;77;1938;-58
2023/03/13 08:49:35;;;;;;;;;;;19.60;41.80;;;;;;1536202;77;672;-58
2023/03/13 08:51:37;;;;;;;;;;;19.60;41.80;;;;;;1538036;77;1164;-58
2023/03/13 08:53:40;;;;;;;;;;;19.60;41.80;;;;;;1539137;77;739;-58
2023/03/13 08:55:42;;;;;;;;;;;19.70;41.80;;;;;;1542214;77;827;-58
2023/03/13 08:57:43;;;;;;;;;;;19.60;41.70;;;;;;1543706;77;807;-58
2023/03/13 08:59:45;;;;;;;;;;;19.70;41.80;;;;;;1547391;77;1516;-58
2023/03/13 09:01:47;;;;;;;;;;;19.70;41.80;;;;;;1537467;77;1197;-58
2023/03/13 09:03:49;;;;;;;;;;;19.60;41.70;;;;;;1549160;77;784;-59
2023/03/13 09:05:51;;;;;;;;;;;19.60;41.60;;;;;;1534514;77;602;-58
2023/03/13 09:07:53;;;;;;;;;;;19.60;41.50;;;;;;1536048;77;1937;-60
2023/03/13 09:09:55;;;;;;;;;;;19.70;41.70;;;;;;1541805;77;815;-58
2023/03/13 09:11:57;;;;;;;;;;;19.80;41.80;;;;;;1545558;77;1166;-58
2023/03/13 09:13:58;;;;;;;;;;;19.80;41.80;;;;;;1532175;77;1555;-59
2023/03/13 09:16:01;;;;;;;;;;;19.80;41.90;;;;;;1546859;77;665;-58
2023/03/13 09:18:03;;;;;;;;;;;19.80;41.90;;;;;;1540365;77;719;-57
2023/03/13 09:20:06;;;;;;;;;;;19.80;41.90;;;;;;1544958;77;779;-58
2023/03/13 09:22:08;;;;;;;;;;;19.80;41.80;;;;;;1537666;77;1122;-58
2023/03/13 09:24:10;;;;;;;;;;;19.80;41.90;;;;;;1544941;77;810;-58
2023/03/13 09:26:12;;;;;;;;;;;19.90;42.10;;;;;;1543420;77;784;-58
2023/03/13 09:28:14;;;;;;;;;;;19.90;42.00;;;;;;1538176;77;1933;-58
2023/03/13 09:30:16;;;;;;;;;;;19.90;42.00;;;;;;1536586;77;827;-58
2023/03/13 09:32:19;;;;;;;;;;;20.00;41.90;;;;;;1538454;77;1094;-58
2023/03/13 09:34:22;;;;;;;;;;;20.00;42.00;;;;;;1541613;77;799;-58
2023/03/13 09:36:24;;;;;;;;;;;20.00;42.00;;;;;;1548188;77;809;-58
2023/03/13 09:38:26;;;;;;;;;;;20.00;42.00;;;;;;1542928;77;795;-58
2023/03/13 09:40:28;;;;;;;;;;;20.00;42.00;;;;;;1543303;77;797;-58
2023/03/13 09:42:46;;;;;;;;;;;20.00;42.00;;;;;;1533014;77;1431;-58
2023/03/13 09:44:50;;;;;;;;;;;20.00;42.00;;;;;;1539475;77;703;-58
2023/03/13 09:46:56;;;;;;;;;;;20.00;41.90;;;;;;1530302;77;1977;-57
2023/03/13 09:48:59;;;;;;;;;;;19.90;41.80;;;;;;1537311;77;2453;-58
2023/03/13 09:51:08;;;;;;;;;;;20.00;41.80;;;;;;1538268;77;695;-59
2023/03/13 09:53:14;;;;;;;;;;;20.00;41.80;;;;;;1546182;77;1096;-58
2023/03/13 09:55:35;;;;;;;;;;;20.00;41.80;;;;;;1538701;77;763;-58
2023/03/13 09:57:39;;;;;;;;;;;20.00;41.80;;;;;;1532420;77;1211;-57
2023/03/13 09:59:45;;;;;;;;;;;20.00;41.80;;;;;;1548775;77;729;-58
2023/03/13 10:01:47;;;;;;;;;;;20.00;41.80;;;;;;1543070;77;1374;-57
2023/03/13 10:03:53;;;;;;;;;;;20.00;41.80;;;;;;1538433;77;717;-58
2023/03/13 10:05:59;;;;;;;;;;;20.00;41.70;;;;;;1547159;77;1846;-60
2023/03/13 10:08:17;;;;;;;;;;;19.90;41.70;;;;;;1540418;77;1943;-60
2023/03/13 10:10:21;;;;;;;;;;;20.00;41.50;;;;;;1531806;77;1567;-58
2023/03/13 10:12:24;;;;;;;;;;;20.00;41.80;;;;;;1541219;77;1164;-59
2023/03/13 10:14:30;;;;;;;;;;;20.00;41.80;;;;;;1515071;77;768;-59
2023/03/13 10:16:40;;;;;;;;;;;20.00;41.50;;;;;;1540915;77;696;-59
2023/03/13 10:18:43;;;;;;;;;;;20.00;41.30;;;;;;1532278;77;746;-60
2023/03/13 10:20:45;;;;;;;;;;;19.90;41.50;;;;;;1536724;77;733;-59
2023/03/13 10:22:47;;;;;;;;;;;20.00;41.60;;;;;;1540116;77;1165;-59
2023/03/13 10:24:59;;;;;;;;;;;20.00;41.50;;;;;;1541469;77;1495;-60
2023/03/13 10:27:02;;;;;;;;;;;20.00;41.60;;;;;;1536293;77;1943;-61
2023/03/13 10:29:17;;;;;;;;;;;20.00;41.60;;;;;;1537830;77;805;-59
2023/03/13 10:31:26;;;;;;;;;;;20.00;41.10;;;;;;1536841;77;1112;-60
2023/03/13 10:33:28;;;;;;;;;;;19.90;41.60;;;;;;1535590;77;717;-60
2023/03/13 10:35:34;;;;;;;;;;;20.00;41.60;;;;;;1545984;77;619;-60
2023/03/13 10:37:42;;;;;;;;;;;20.00;41.70;;;;;;1543153;77;814;-59
2023/03/13 10:39:44;;;;;;;;;;;20.00;41.60;;;;;;1532947;77;1258;-60
2023/03/13 10:41:46;;;;;;;;;;;20.00;41.60;;;;;;1529358;77;1119;-61
2023/03/13 10:43:52;;;;;;;;;;;20.10;41.80;;;;;;1514989;78;809;-61
2023/03/13 10:45:54;;;;;;;;;;;20.00;41.60;;;;;;1539669;77;1864;-59
2023/03/13 10:47:57;;;;;;;;;;;20.00;41.60;;;;;;1533066;77;1933;-59
2023/03/13 10:49:58;;;;;;;;;;;20.00;41.70;;;;;;1544455;77;801;-59
2023/03/13 10:52:05;;;;;;;;;;;20.10;41.80;;;;;;1547566;77;1102;-59
2023/03/13 10:54:17;;;;;;;;;;;20.10;41.80;;;;;;1534724;77;1624;-59
2023/03/13 10:56:21;;;;;;;;;;;20.00;41.80;;;;;;1509471;77;970;-60
2023/03/13 10:58:24;;;;;;;;;;;20.00;41.10;;;;;;1536373;77;1465;-59
2023/03/13 11:00:36;;;;;;;;;;;19.90;41.90;;;;;;1535782;77;786;-60
2023/03/13 11:02:38;;;;;;;;;;;19.90;42.10;;;;;;1549068;77;1129;-61
2023/03/13 11:04:40;;;;;;;;;;;19.90;42.10;;;;;;1543383;77;755;-61
2023/03/13 11:06:41;;;;;;;;;;;19.90;42.30;;;;;;1544975;77;1507;-61
2023/03/13 11:08:43;;;;;;;;;;;19.90;42.40;;;;;;1539648;77;1915;-59
2023/03/13 11:10:58;;;;;;;;;;;20.00;42.40;;;;;;1538366;77;710;-59
2023/03/13 11:13:00;;;;;;;;;;;19.90;42.50;;;;;;1530060;77;1119;-60
2023/03/13 11:15:02;;;;;;;;;;;20.00;42.40;;;;;;1537062;77;806;-62
2023/03/13 11:17:05;;;;;;;;;;;20.00;42.40;;;;;;1531918;77;753;-60
2023/03/13 11:19:15;;;;;;;;;;;20.00;42.40;;;;;;1530374;77;1829;-60
2023/03/13 11:21:22;;;;;;;;;;;20.00;42.30;;;;;;1540392;77;1527;-59
2023/03/13 11:23:27;;;;;;;;;;;20.00;42.30;;;;;;1541983;77;1784;-60
2023/03/13 11:25:31;;;;;;;;;;;20.00;42.30;;;;;;1540089;77;685;-60
2023/03/13 11:27:37;;;;;;;;;;;20.10;42.30;;;;;;1534980;77;1921;-60
2023/03/13 11:29:43;;;;;;;;;;;20.10;42.30;;;;;;1541084;77;794;-60
2023/03/13 11:31:47;;;;;;;;;;;20.00;42.20;;;;;;1534041;77;1132;-61
2023/03/13 11:34:03;;;;;;;;;;;20.10;42.30;;;;;;1540737;77;1805;-59
2023/03/13 11:36:06;;;;;;;;;;;20.00;42.10;;;;;;1542094;77;1513;-59
2023/03/13 11:38:10;;;;;;;;;;;20.00;42.20;;;;;;1533845;77;1464;-60
2023/03/13 11:40:29;;;;;;;;;;;20.00;42.10;;;;;;1535630;77;1102;-59
2023/03/13 11:42:49;;;;;;;;;;;20.10;42.30;;;;;;1538953;77;1134;-61
2023/03/13 11:45:02;;;;;;;;;;;20.10;42.30;;;;;;1539741;77;754;-59
2023/03/13 11:47:22;;;;;;;;;;;20.10;42.30;;;;;;1538514;77;792;-60
2023/03/13 11:49:25;;;;;;;;;;;20.00;42.20;;;;;;1536190;77;1520;-61
2023/03/13 11:51:29;;;;;;;;;;;19.80;42.20;;;;;;1535784;77;1184;-60
2023/03/13 11:53:48;;;;;;;;;;;20.00;42.20;;;;;;1531612;77;1968;-59
2023/03/13 11:55:52;;;;;;;;;;;20.10;42.30;;;;;;1541087;77;744;-60
2023/03/13 11:58:02;;;;;;;;;;;20.10;42.30;;;;;;1536250;77;815;-60
2023/03/13 12:00:05;;;;;;;;;;;20.10;42.40;;;;;;1541070;77;1902;-62
2023/03/13 12:02:25;;;;;;;;;;;20.10;42.30;;;;;;1538190;77;1263;-59
2023/03/13 12:04:29;;;;;;;;;;;20.10;42.30;;;;;;1535889;77;713;-60
2023/03/13 12:06:35;;;;;;;;;;;20.10;42.40;;;;;;1539027;77;709;-60
2023/03/13 12:08:42;;;;;;;;;;;20.10;42.30;;;;;;1538241;77;1935;-60
2023/03/13 12:10:45;;;;;;;;;;;20.10;42.40;;;;;;1527062;77;1544;-60
2023/03/13 12:12:49;;;;;;;;;;;20.10;42.30;;;;;;1524604;77;1080;-60
2023/03/13 12:14:52;;;;;;;;;;;20.10;42.30;;;;;;1540139;77;735;-59